createdAt,value
2018-12-13T00:01:10.863Z,13.27
2018-12-13T00:03:39.575Z,14.73
2018-12-13T00:06:10.161Z,12.23
2018-12-13T00:08:39.345Z,14.57
2018-12-13T00:11:09.819Z,15.77
2018-12-13T00:13:40.214Z,14.33
2018-12-13T00:16:10.479Z,12.67
2018-12-13T00:18:41.130Z,14.13
2018-12-13T00:21:13.880Z,12.20
2018-12-13T00:23:42.917Z,11.37
2018-12-13T00:26:12.742Z,12.63
2018-12-13T00:28:42.066Z,14.33
2018-12-13T00:31:10.916Z,12.43
2018-12-13T00:33:42.173Z,12.50
2018-12-13T00:36:11.003Z,13.30
2018-12-13T00:38:39.659Z,12.90
2018-12-13T00:41:08.274Z,12.87
2018-12-13T00:43:37.245Z,13.00
2018-12-13T00:46:06.745Z,11.60
2018-12-13T00:48:36.330Z,10.90
2018-12-13T00:51:06.214Z,10.63
2018-12-13T00:53:35.240Z,12.10
2018-12-13T00:56:04.081Z,9.37
2018-12-13T00:58:32.706Z,21.47
2018-12-13T01:01:01.371Z,10.37
2018-12-13T01:03:31.507Z,13.70
2018-12-13T01:06:00.122Z,15.83
2018-12-13T01:08:28.745Z,13.33
2018-12-13T01:10:57.380Z,11.70
2018-12-13T01:13:26.045Z,15.63
2018-12-13T01:15:54.692Z,12.93
2018-12-13T01:18:23.307Z,9.53
2018-12-13T01:20:51.902Z,10.13
2018-12-13T01:23:20.511Z,12.47
2018-12-13T01:25:49.132Z,14.53
2018-12-13T01:28:17.787Z,14.53
2018-12-13T01:30:46.405Z,12.17
2018-12-13T01:33:15.013Z,12.07
2018-12-13T01:35:43.677Z,10.90
2018-12-13T01:38:12.287Z,11.03
2018-12-13T01:40:40.911Z,15.80
2018-12-13T01:43:10.408Z,12.53
2018-12-13T01:45:39.137Z,18.03
2018-12-13T01:48:07.777Z,15.33
2018-12-13T01:50:36.374Z,10.57
2018-12-13T01:53:04.981Z,10.70
2018-12-13T01:55:33.590Z,12.00
2018-12-13T01:58:02.213Z,14.80
2018-12-13T02:00:30.897Z,10.10
2018-12-13T02:03:04.639Z,10.63
2018-12-13T02:05:33.293Z,13.13
2018-12-13T02:08:01.881Z,9.20
2018-12-13T02:10:30.510Z,10.57
2018-12-13T02:12:59.187Z,10.13
2018-12-13T02:15:27.910Z,13.17
2018-12-13T02:17:56.509Z,11.90
2018-12-13T02:20:25.241Z,13.40
2018-12-13T02:22:53.901Z,13.43
2018-12-13T02:25:22.557Z,21.70
2018-12-13T02:27:51.173Z,10.67
2018-12-13T02:30:21.769Z,13.13
2018-12-13T02:32:50.667Z,10.90
2018-12-13T02:35:19.271Z,9.03
2018-12-13T02:37:47.925Z,10.63
2018-12-13T02:40:16.590Z,11.70
2018-12-13T02:42:45.285Z,12.27
2018-12-13T02:45:13.887Z,7.53
2018-12-13T02:47:42.499Z,8.67
2018-12-13T02:50:11.113Z,10.00
2018-12-13T02:52:39.722Z,8.27
2018-12-13T02:55:08.379Z,12.43
2018-12-13T02:57:36.977Z,9.60
2018-12-13T03:00:05.755Z,8.90
2018-12-13T03:02:34.417Z,12.83
2018-12-13T03:05:03.054Z,8.20
2018-12-13T03:07:31.822Z,11.50
2018-12-13T03:10:00.483Z,9.33
2018-12-13T03:12:29.137Z,8.37
2018-12-13T03:14:57.795Z,9.83
2018-12-13T03:17:26.396Z,8.13
2018-12-13T03:19:55.006Z,10.30
2018-12-13T03:22:23.672Z,9.27
2018-12-13T03:24:52.306Z,9.60
2018-12-13T03:27:20.974Z,11.63
2018-12-13T03:29:49.608Z,10.03
2018-12-13T03:32:18.229Z,8.50
2018-12-13T03:34:46.836Z,10.00
2018-12-13T03:37:20.529Z,8.17
2018-12-13T03:39:46.179Z,8.20
2018-12-13T03:42:14.771Z,8.03
2018-12-13T03:44:43.384Z,9.67
2018-12-13T03:47:12.014Z,7.77
2018-12-13T03:49:40.662Z,8.00
2018-12-13T03:52:09.289Z,9.03
2018-12-13T03:54:37.991Z,6.53
2018-12-13T03:57:06.758Z,6.80
2018-12-13T03:59:35.392Z,7.50
2018-12-13T04:02:04.039Z,7.67
2018-12-13T04:04:32.646Z,8.57
2018-12-13T04:07:01.258Z,6.90
2018-12-13T04:09:29.841Z,7.87
2018-12-13T04:11:58.438Z,7.30
2018-12-13T04:14:27.101Z,7.77
2018-12-13T04:16:55.742Z,7.10
2018-12-13T04:19:24.385Z,7.17
2018-12-13T04:21:53.018Z,7.97
2018-12-13T04:24:21.622Z,8.63
2018-12-13T04:26:50.276Z,5.90
2018-12-13T04:29:18.862Z,9.83
2018-12-13T04:31:47.505Z,9.40
2018-12-13T04:34:16.206Z,7.57
2018-12-13T04:36:44.840Z,6.33
2018-12-13T04:39:13.459Z,7.70
2018-12-13T04:41:42.126Z,8.63
2018-12-13T04:44:10.753Z,6.77
2018-12-13T04:46:39.382Z,7.57
2018-12-13T04:49:08.036Z,7.33
2018-12-13T04:51:36.655Z,8.83
2018-12-13T04:54:05.280Z,7.57
2018-12-13T04:56:33.922Z,7.27
2018-12-13T04:59:02.530Z,6.83
2018-12-13T05:01:31.174Z,7.30
2018-12-13T05:03:59.876Z,7.83
2018-12-13T05:06:28.577Z,9.43
2018-12-13T05:08:57.202Z,5.13
2018-12-13T05:11:25.814Z,7.27
2018-12-13T05:13:54.429Z,5.80
2018-12-13T05:16:23.072Z,4.53
2018-12-13T05:18:51.709Z,6.40
2018-12-13T05:21:20.342Z,6.77
2018-12-13T05:23:48.993Z,7.50
2018-12-13T05:26:17.663Z,6.00
2018-12-13T05:28:46.326Z,5.27
2018-12-13T05:31:14.934Z,5.10
2018-12-13T05:33:43.608Z,8.63
2018-12-13T05:36:12.366Z,3.83
2018-12-13T05:38:40.978Z,5.73
2018-12-13T05:41:09.592Z,7.13
2018-12-13T05:43:38.571Z,6.43
2018-12-13T05:46:07.189Z,6.60
2018-12-13T05:48:35.819Z,7.43
2018-12-13T05:51:04.430Z,5.90
2018-12-13T05:53:33.021Z,7.00
2018-12-13T05:56:01.998Z,6.17
2018-12-13T05:58:30.613Z,7.27
2018-12-13T06:00:59.432Z,5.37
2018-12-13T06:03:28.048Z,5.27
2018-12-13T06:05:56.926Z,6.43
2018-12-13T06:08:25.540Z,6.27
2018-12-13T06:10:56.129Z,8.40
2018-12-13T06:13:24.757Z,8.87
2018-12-13T06:15:53.397Z,6.97
2018-12-13T06:18:22.945Z,6.53
2018-12-13T06:20:53.218Z,6.93
2018-12-13T06:23:21.855Z,6.93
2018-12-13T06:25:50.606Z,12.10
2018-12-13T06:28:19.345Z,9.63
2018-12-13T06:30:48.029Z,8.17
2018-12-13T06:33:16.645Z,8.57
2018-12-13T06:35:45.273Z,10.50
2018-12-13T06:38:14.432Z,9.00
2018-12-13T06:40:43.117Z,10.30
2018-12-13T06:43:11.849Z,18.87
2018-12-13T06:45:40.538Z,16.30
2018-12-13T06:48:09.173Z,11.07
2018-12-13T06:50:37.809Z,14.03
2018-12-13T06:53:07.145Z,13.67
2018-12-13T06:55:35.801Z,14.60
2018-12-13T06:58:04.427Z,14.50
2018-12-13T07:00:33.042Z,13.77
2018-12-13T07:03:01.658Z,15.97
2018-12-13T07:05:30.278Z,13.00
2018-12-13T07:07:58.885Z,15.87
2018-12-13T07:10:27.529Z,15.20
2018-12-13T07:12:56.523Z,14.47
2018-12-13T07:15:25.225Z,16.83
2018-12-13T07:17:54.014Z,20.87
2018-12-13T07:20:22.618Z,21.67
2018-12-13T07:22:51.298Z,25.60
2018-12-13T07:25:19.938Z,31.50
2018-12-13T07:27:48.552Z,34.00
2018-12-13T07:30:17.193Z,30.90
2018-12-13T07:32:45.835Z,36.27
2018-12-13T07:35:14.481Z,28.27
2018-12-13T07:37:43.989Z,35.80
2018-12-13T07:40:12.642Z,32.13
2018-12-13T07:42:41.269Z,32.70
2018-12-13T07:45:09.977Z,40.90
2018-12-13T07:47:38.628Z,32.97
2018-12-13T07:50:08.366Z,38.03
2018-12-13T07:52:38.261Z,45.80
2018-12-13T07:55:07.274Z,38.80
2018-12-13T07:57:36.077Z,34.97
2018-12-13T08:00:05.249Z,34.03
2018-12-13T08:02:33.866Z,33.20
2018-12-13T08:05:02.521Z,35.23
2018-12-13T08:07:31.118Z,31.23
2018-12-13T08:09:59.756Z,31.67
2018-12-13T08:12:28.388Z,37.73
2018-12-13T08:14:57.012Z,33.03
2018-12-13T08:17:25.680Z,33.43
2018-12-13T08:19:54.385Z,30.87
2018-12-13T08:22:23.057Z,28.63
2018-12-13T08:24:51.699Z,28.27
2018-12-13T08:27:20.314Z,32.20
2018-12-13T08:29:48.969Z,27.67
2018-12-13T08:32:17.629Z,29.10
2018-12-13T08:34:46.257Z,29.30
2018-12-13T08:37:14.899Z,24.33
2018-12-13T08:39:43.529Z,27.40
2018-12-13T08:42:12.198Z,28.67
2018-12-13T08:44:41.270Z,27.47
2018-12-13T08:47:09.979Z,23.07
2018-12-13T08:49:38.618Z,20.63
2018-12-13T08:52:07.278Z,24.10
2018-12-13T08:54:35.925Z,17.37
2018-12-13T08:57:04.588Z,23.80
2018-12-13T08:59:33.501Z,22.17
2018-12-13T09:02:02.135Z,19.83
2018-12-13T09:04:30.769Z,17.43
2018-12-13T09:06:59.427Z,14.07
2018-12-13T09:09:28.863Z,15.13
2018-12-13T09:11:58.221Z,16.23
2018-12-13T09:14:26.869Z,20.63
2018-12-13T09:16:56.407Z,20.87
2018-12-13T09:19:25.258Z,15.77
2018-12-13T09:21:53.926Z,15.53
2018-12-13T09:24:22.546Z,17.53
2018-12-13T09:26:51.448Z,15.83
2018-12-13T09:29:20.107Z,17.83
2018-12-13T09:31:48.749Z,16.97
2018-12-13T09:34:17.454Z,18.47
2018-12-13T09:36:46.107Z,16.93
2018-12-13T09:39:14.762Z,15.00
2018-12-13T09:41:43.603Z,17.60
2018-12-13T09:44:16.933Z,15.07
2018-12-13T09:46:46.756Z,18.37
2018-12-13T09:49:15.363Z,17.83
2018-12-13T09:51:44.025Z,15.97
2018-12-13T09:54:12.670Z,16.70
2018-12-13T09:56:41.313Z,15.93
2018-12-13T09:59:09.943Z,15.20
2018-12-13T10:01:43.562Z,15.00
2018-12-13T10:04:12.221Z,13.53
2018-12-13T10:06:40.842Z,14.33
2018-12-13T10:09:09.476Z,13.77
2018-12-13T10:11:38.174Z,16.20
2018-12-13T10:14:06.810Z,16.47
2018-12-13T10:16:35.451Z,14.17
2018-12-13T10:19:04.117Z,16.50
2018-12-13T10:21:33.482Z,14.33
2018-12-13T10:24:02.139Z,12.97
2018-12-13T10:26:30.790Z,15.30
2018-12-13T10:28:59.445Z,13.83
2018-12-13T10:31:28.123Z,13.77
2018-12-13T10:33:56.798Z,12.70
2018-12-13T10:36:25.737Z,11.70
2018-12-13T10:38:55.714Z,15.67
2018-12-13T10:41:24.331Z,11.90
2018-12-13T10:43:52.946Z,15.40
2018-12-13T10:46:21.581Z,11.53
2018-12-13T10:48:50.203Z,13.33
2018-12-13T10:51:18.850Z,14.03
2018-12-13T10:53:47.466Z,15.83
2018-12-13T10:56:16.105Z,14.73
2018-12-13T10:58:44.734Z,10.63
2018-12-13T11:01:18.651Z,13.63
2018-12-13T11:03:47.278Z,11.57
2018-12-13T11:06:15.937Z,12.77
2018-12-13T11:08:44.651Z,14.67
2018-12-13T11:11:13.343Z,12.97
2018-12-13T11:13:42.006Z,13.57
2018-12-13T11:16:10.670Z,13.03
2018-12-13T11:18:39.462Z,14.30
2018-12-13T11:21:08.173Z,12.27
2018-12-13T11:23:36.822Z,15.33
2018-12-13T11:26:06.520Z,12.93
2018-12-13T11:28:46.477Z,12.40
2018-12-13T11:31:15.151Z,12.33
2018-12-13T11:33:43.819Z,11.87
2018-12-13T11:36:12.477Z,12.00
2018-12-13T11:38:41.141Z,13.20
2018-12-13T11:41:09.790Z,13.37
2018-12-13T11:43:38.443Z,13.77
2018-12-13T11:46:07.139Z,13.70
2018-12-13T11:48:38.119Z,13.33
2018-12-13T11:51:06.823Z,12.93
2018-12-13T11:53:37.562Z,12.20
2018-12-13T11:56:06.635Z,17.30
2018-12-13T11:58:35.390Z,12.50
2018-12-13T12:01:04.264Z,14.00
2018-12-13T12:03:34.210Z,14.13
2018-12-13T12:06:02.894Z,14.60
2018-12-13T12:08:31.566Z,14.23
2018-12-13T12:11:00.637Z,14.77
2018-12-13T12:13:30.029Z,13.30
2018-12-13T12:16:01.033Z,12.87
2018-12-13T12:18:29.730Z,13.30
2018-12-13T12:20:58.406Z,13.47
2018-12-13T12:23:27.149Z,12.60
2018-12-13T12:25:55.817Z,14.60
2018-12-13T12:28:24.503Z,12.23
2018-12-13T12:30:55.009Z,12.00
2018-12-13T12:33:23.676Z,13.93
2018-12-13T12:35:52.360Z,12.57
2018-12-13T12:38:21.835Z,12.47
2018-12-13T12:40:50.501Z,13.77
2018-12-13T12:43:19.185Z,14.13
2018-12-13T12:45:49.837Z,13.27
2018-12-13T12:48:19.031Z,12.73
2018-12-13T12:50:47.688Z,11.87
2018-12-13T12:53:20.857Z,11.00
2018-12-13T12:55:49.577Z,13.07
2018-12-13T12:58:18.247Z,13.00
2018-12-13T13:00:47.086Z,11.30
2018-12-13T13:03:16.007Z,12.77
2018-12-13T13:05:45.739Z,11.73
2018-12-13T13:08:14.437Z,12.07
2018-12-13T13:10:43.131Z,12.03
2018-12-13T13:13:11.802Z,12.67
2018-12-13T13:15:40.455Z,12.43
2018-12-13T13:18:09.118Z,11.53
2018-12-13T13:20:38.631Z,13.13
2018-12-13T13:23:09.609Z,10.70
2018-12-13T13:25:38.277Z,11.53
2018-12-13T13:28:12.088Z,12.47
2018-12-13T13:30:40.751Z,11.17
2018-12-13T13:33:10.052Z,12.70
2018-12-13T13:35:39.939Z,15.33
2018-12-13T13:38:08.627Z,13.07
2018-12-13T13:40:37.306Z,12.33
2018-12-13T13:43:11.557Z,14.23
2018-12-13T13:45:41.976Z,11.40
2018-12-13T13:48:12.963Z,12.90
2018-12-13T13:50:42.517Z,13.73
2018-12-13T13:53:12.773Z,12.10
2018-12-13T13:55:44.389Z,13.70
2018-12-13T13:58:13.578Z,13.67
2018-12-13T14:00:42.860Z,19.70
2018-12-13T14:03:13.211Z,13.70
2018-12-13T14:05:41.895Z,11.97
2018-12-13T14:08:10.593Z,12.00
2018-12-13T14:10:39.230Z,16.27
2018-12-13T14:13:09.228Z,18.27
2018-12-13T14:15:38.738Z,16.57
2018-12-13T14:18:07.348Z,15.60
2018-12-13T14:20:36.026Z,26.90
2018-12-13T14:23:04.865Z,19.77
2018-12-13T14:25:35.436Z,22.00
2018-12-13T14:28:04.085Z,24.07
2018-12-13T14:30:32.782Z,22.10
2018-12-13T14:33:01.446Z,20.73
2018-12-13T14:35:31.384Z,18.53
2018-12-13T14:38:00.023Z,20.70
2018-12-13T14:40:28.655Z,21.93
2018-12-13T14:42:57.326Z,24.17
2018-12-13T14:45:26.910Z,19.83
2018-12-13T14:47:55.853Z,20.80
2018-12-13T14:50:24.475Z,18.53
2018-12-13T14:52:53.956Z,16.23
2018-12-13T14:55:22.695Z,17.37
2018-12-13T14:57:52.192Z,13.83
2018-12-13T15:00:21.439Z,17.10
2018-12-13T15:02:51.356Z,19.23
2018-12-13T15:05:20.727Z,19.67
2018-12-13T15:07:49.409Z,14.67
2018-12-13T15:10:18.727Z,16.67
2018-12-13T15:12:48.358Z,17.73
2018-12-13T15:15:17.073Z,13.20
2018-12-13T15:17:45.729Z,16.43
2018-12-13T15:20:14.870Z,17.93
2018-12-13T15:22:43.478Z,21.83
2018-12-13T15:25:12.119Z,26.83
2018-12-13T15:27:40.831Z,30.50
2018-12-13T15:30:09.478Z,25.93
2018-12-13T15:32:38.130Z,34.27
2018-12-13T15:35:06.774Z,44.03
2018-12-13T15:37:35.425Z,56.67
2018-12-13T15:40:04.861Z,59.30
2018-12-13T15:42:33.949Z,56.07
2018-12-13T15:45:02.646Z,54.13
2018-12-13T15:47:32.301Z,33.93
2018-12-13T15:50:01.561Z,30.80
2018-12-13T15:52:30.211Z,23.97
2018-12-13T15:54:59.554Z,23.10
2018-12-13T15:57:29.077Z,19.50
2018-12-13T15:59:57.726Z,21.90
2018-12-13T16:02:27.673Z,22.67
2018-12-13T16:04:56.366Z,17.43
2018-12-13T16:07:25.018Z,19.57
2018-12-13T16:09:54.366Z,22.13
2018-12-13T16:12:23.050Z,18.67
2018-12-13T16:14:52.583Z,22.50
2018-12-13T16:17:22.203Z,20.63
2018-12-13T16:19:52.258Z,19.33
2018-12-13T16:22:22.116Z,21.77
2018-12-13T16:24:50.810Z,22.53
2018-12-13T16:27:20.614Z,21.77
2018-12-13T16:29:49.834Z,20.90
2018-12-13T16:32:18.586Z,25.07
2018-12-13T16:34:47.829Z,23.90
2018-12-13T16:37:17.294Z,21.87
2018-12-13T16:39:45.963Z,18.77
2018-12-13T16:42:14.617Z,24.93
2018-12-13T16:44:43.260Z,23.93
2018-12-13T16:47:11.944Z,17.97
2018-12-13T16:49:40.618Z,23.30
2018-12-13T16:52:09.246Z,20.17
2018-12-13T16:54:38.310Z,17.40
2018-12-13T16:57:07.002Z,20.97
2018-12-13T16:59:35.884Z,15.30
2018-12-13T17:02:05.049Z,21.53
2018-12-13T17:04:35.122Z,21.13
2018-12-13T17:07:04.689Z,19.23
2018-12-13T17:09:34.822Z,17.70
2018-12-13T17:12:03.499Z,17.37
2018-12-13T17:14:32.245Z,21.03
2018-12-13T17:17:00.899Z,18.57
2018-12-13T17:19:29.622Z,19.87
2018-12-13T17:21:58.274Z,20.33
2018-12-13T17:24:26.938Z,16.07
2018-12-13T17:26:55.609Z,18.07
2018-12-13T17:29:24.865Z,16.27
2018-12-13T17:31:54.051Z,18.50
2018-12-13T17:34:22.709Z,17.23
2018-12-13T17:36:51.370Z,15.83
2018-12-13T17:39:20.440Z,16.57
2018-12-13T17:41:49.143Z,21.43
2018-12-13T17:44:17.874Z,22.10
2018-12-13T17:46:46.537Z,17.33
2018-12-13T17:49:15.782Z,27.50
2018-12-13T17:51:44.498Z,17.60
2018-12-13T17:54:13.744Z,17.57
2018-12-13T17:56:42.446Z,14.07
2018-12-13T17:59:11.623Z,13.13
2018-12-13T18:01:40.818Z,21.10
2018-12-13T18:04:09.982Z,13.87
2018-12-13T18:06:39.146Z,16.80
2018-12-13T18:09:08.269Z,14.80
2018-12-13T18:11:36.987Z,12.80
2018-12-13T18:14:05.826Z,15.20
2018-12-13T18:16:34.621Z,16.20
2018-12-13T18:19:03.376Z,14.30
2018-12-13T18:21:32.838Z,14.20
2018-12-13T18:24:01.535Z,16.63
2018-12-13T18:26:30.340Z,14.07
2018-12-13T18:29:00.596Z,15.43
2018-12-13T18:31:29.697Z,19.53
2018-12-13T18:33:58.547Z,15.00
2018-12-13T18:36:27.251Z,12.77
2018-12-13T18:38:58.452Z,13.00
2018-12-13T18:41:33.755Z,14.10
2018-12-13T18:44:02.496Z,13.80
2018-12-13T18:46:33.305Z,13.57
2018-12-13T18:49:02.324Z,13.83
2018-12-13T18:51:31.395Z,11.73
2018-12-13T18:54:04.052Z,13.73
2018-12-13T18:56:33.072Z,12.53
2018-12-13T18:59:03.553Z,15.07
2018-12-13T19:01:32.402Z,15.53
2018-12-13T19:04:01.183Z,15.30
2018-12-13T19:06:31.270Z,14.83
2018-12-13T19:09:00.429Z,13.53
2018-12-13T19:11:30.140Z,15.13
2018-12-13T19:13:59.386Z,15.37
2018-12-13T19:16:29.748Z,17.53
2018-12-13T19:18:58.623Z,16.77
2018-12-13T19:21:27.536Z,17.23
2018-12-13T19:23:56.655Z,19.50
2018-12-13T19:26:26.505Z,15.93
2018-12-13T19:28:56.010Z,16.67
2018-12-13T19:31:24.823Z,15.77
2018-12-13T19:33:55.692Z,15.27
2018-12-13T19:36:26.204Z,17.80
2018-12-13T19:38:55.582Z,17.60
2018-12-13T19:41:25.075Z,21.13
2018-12-13T19:43:54.398Z,20.73
2018-12-13T19:46:23.994Z,22.13
2018-12-13T19:49:00.093Z,20.83
2018-12-13T19:51:29.904Z,19.63
2018-12-13T19:54:00.450Z,24.93
2018-12-13T19:56:30.294Z,19.83
2018-12-13T19:59:00.365Z,20.40
2018-12-13T20:01:29.830Z,25.90
2018-12-13T20:04:00.484Z,19.60
2018-12-13T20:06:29.841Z,18.80
2018-12-13T20:08:58.626Z,22.50
2018-12-13T20:11:31.451Z,22.37
2018-12-13T20:14:02.640Z,21.70
2018-12-13T20:16:37.648Z,30.93
2018-12-13T20:19:10.600Z,24.13
2018-12-13T20:21:40.121Z,21.13
2018-12-13T20:24:09.330Z,24.77
2018-12-13T20:26:38.769Z,25.67
2018-12-13T20:29:08.772Z,26.37
2018-12-13T20:31:37.783Z,21.83
2018-12-13T20:34:07.234Z,20.30
2018-12-13T20:36:37.014Z,24.73
2018-12-13T20:39:09.651Z,25.23
2018-12-13T20:41:40.444Z,19.73
2018-12-13T20:44:11.727Z,11.73
2018-12-13T20:46:40.634Z,13.80
2018-12-13T20:49:09.664Z,15.53
2018-12-13T20:51:40.476Z,20.27
2018-12-13T20:54:09.243Z,21.47
2018-12-13T20:56:38.317Z,22.20
2018-12-13T20:59:07.429Z,22.20
2018-12-13T21:01:36.163Z,23.90
2018-12-13T21:04:05.777Z,24.30
2018-12-13T21:06:35.431Z,22.63
2018-12-13T21:09:06.672Z,24.40
2018-12-13T21:11:35.451Z,25.10
2018-12-13T21:14:04.428Z,25.43
2018-12-13T21:16:34.383Z,27.90
2018-12-13T21:19:03.352Z,25.90
2018-12-13T21:21:32.153Z,27.07
2018-12-13T21:24:02.051Z,27.40
2018-12-13T21:26:32.279Z,26.97
2018-12-13T21:29:01.174Z,26.83
2018-12-13T21:31:31.063Z,27.13
2018-12-13T21:34:00.447Z,27.87
2018-12-13T21:36:29.887Z,23.43
2018-12-13T21:38:58.918Z,27.07
2018-12-13T21:41:30.315Z,27.47
2018-12-13T21:43:59.010Z,29.00
2018-12-13T21:46:27.677Z,27.10
2018-12-13T21:48:56.410Z,24.47
2018-12-13T21:51:25.031Z,26.70
2018-12-13T21:53:54.187Z,26.77
2018-12-13T21:56:23.683Z,26.33
2018-12-13T21:58:52.997Z,26.17
2018-12-13T22:01:21.683Z,24.07
2018-12-13T22:03:52.650Z,24.77
2018-12-13T22:06:22.010Z,23.40
2018-12-13T22:08:51.918Z,24.00
2018-12-13T22:11:20.611Z,23.73
2018-12-13T22:13:49.387Z,22.73
2018-12-13T22:16:19.637Z,25.13
2018-12-13T22:18:48.740Z,24.57
2018-12-13T22:21:18.157Z,26.33
2018-12-13T22:23:47.500Z,23.13
2018-12-13T22:26:17.132Z,23.77
2018-12-13T22:28:45.819Z,22.47
2018-12-13T22:31:14.470Z,24.87
2018-12-13T22:33:43.087Z,22.80
2018-12-13T22:36:11.775Z,22.07
2018-12-13T22:38:40.441Z,21.73
2018-12-13T22:41:09.048Z,20.50
2018-12-13T22:43:37.690Z,19.27
2018-12-13T22:46:06.324Z,17.93
2018-12-13T22:48:35.212Z,17.97
2018-12-13T22:51:03.872Z,16.00
2018-12-13T22:53:32.542Z,13.47
2018-12-13T22:56:01.154Z,15.07
2018-12-13T22:58:29.817Z,15.83
2018-12-13T23:00:58.482Z,15.50
2018-12-13T23:03:27.094Z,15.70
2018-12-13T23:05:55.731Z,19.00
2018-12-13T23:08:24.733Z,15.60
2018-12-13T23:10:53.443Z,18.30
2018-12-13T23:13:24.598Z,14.50
2018-12-13T23:15:54.872Z,12.97
2018-12-13T23:18:25.289Z,15.43
2018-12-13T23:20:54.317Z,15.27
2018-12-13T23:23:25.358Z,15.33
2018-12-13T23:25:57.077Z,15.20
2018-12-13T23:28:28.527Z,15.83
2018-12-13T23:30:58.007Z,14.23
2018-12-13T23:33:26.620Z,15.70
2018-12-13T23:35:57.707Z,16.20
2018-12-13T23:38:32.860Z,14.47
2018-12-13T23:41:02.607Z,14.27
2018-12-13T23:43:34.701Z,17.93
2018-12-13T23:46:04.414Z,16.37
2018-12-13T23:48:36.803Z,13.97
2018-12-13T23:51:05.805Z,12.40
2018-12-13T23:53:35.920Z,16.07
2018-12-13T23:56:05.421Z,13.73
2018-12-13T23:58:43.140Z,15.00
